Nearby METAR Reports

 

KBMG - Bloomington, Indiana, USA
Distance from station: SSE 11mi, 18km
Updated: Sun, 16-Dec-2018 9:53am EST
Mist, Mostly cloudy
Mist, Mostly cloudy
 Wind from N
Wind: N 3 mph , 6 km/h
Temperature: 39°F , 4°C
Dew Point: 39°F , 4°C
Humidity: 100%
Barometer: 30.12 inHg , 1020 hPa
Summary: Mist
Clouds: Mostly cloudy
Visibility: 4 miles , 6 km
Cloud details: Mostly cloudy 300 ft
2018/12/16 14:53 KBMG 161453Z 35003KT 4SM BR BKN003 04/04 A3012 RMK AO2 SLP204 T00440039 51014
KHUF - Terre Haute, Indiana, USA
Distance from station: WNW 34mi, 54km
Updated: Sun, 16-Dec-2018 9:53am EST
Clear
Clear
 Wind from WNW
Wind: WNW 3 mph , 6 km/h
Temperature: 36°F , 2°C
Dew Point: 30°F , -1°C
Humidity: 81%
Barometer: 30.16 inHg , 1021.3 hPa
Clouds: Clear
Visibility: 9 miles , 14 km
2018/12/16 14:53 KHUF 161453Z 30003KT 9SM CLR 02/M01 A3016 RMK AO2 SLP218 T00221006 53014
 
KIND - Indianapolis, Indiana, USA
Distance from station: NE 36mi, 58km
Updated: Sun, 16-Dec-2018 9:54am EST
Mostly cloudy
Mostly cloudy
 Wind from WNW
Wind: WNW 5 mph , 7 km/h
Temperature: 39°F , 4°C
Wind Chill: 35°F , 2°C
Dew Point: 36°F , 2°C
Humidity: 87%
Barometer: 30.11 inHg , 1019.6 hPa
Clouds: Mostly cloudy
Visibility: 10 miles , 16 km
Cloud details: Partly cloudy 700 ft
Mostly cloudy 25000 ft
2018/12/16 14:54 KIND 161454Z 30004KT 10SM SCT007 BKN250 04/02 A3011 RMK AO2 SLP203 T00390017 51012 $
KBAK - Columbus/Balkala, Indiana, USA
Distance from station: E 43mi, 69km
Updated: Sun, 16-Dec-2018 9:45am EST
Mist, Overcast
Mist, Overcast
 Wind from NNW
Wind: NNW 6 mph , 9 km/h
Temperature: 39°F , 4°C
Wind Chill: 35°F , 2°C
Dew Point: 36°F , 2°C
Humidity: 87%
Barometer: 30.13 inHg , 1020.3 hPa
Summary: Mist
Clouds: Overcast
Visibility: 3 miles , 5 km
Cloud details: Overcast 400 ft
2018/12/16 14:45 KBAK 161445Z 33005KT 3SM BR OVC004 04/02 A3013
 
KEYE - Indianapolis, Indiana, USA
Distance from station: NNE 43mi, 69km
Updated: Sun, 16-Dec-2018 9:53am EST
Clear
Clear
 Wind from calm
Wind: Calm
Temperature: 37°F , 3°C
Dew Point: 34°F , 1°C
Humidity: 87%
Barometer: 30.10 inHg , 1019.3 hPa
Clouds: Clear
Visibility: 10 miles , 16 km
2018/12/16 14:53 KEYE 161453Z AUTO 00000KT 10SM CLR 03/01 A3010 RMK AO2 SLP199 T00330006 51010
KDCY - Daviess County, Indiana, USA
Distance from station: SSW 47mi, 76km
Updated: Sun, 16-Dec-2018 9:55am EST
Overcast
Overcast
 Wind from NW
Wind: NW 5 mph , 7 km/h
Temperature: 37°F , 3°C
Wind Chill: 33°F , 1°C
Dew Point: 34°F , 1°C
Humidity: 87%
Barometer: 30.16 inHg , 1021.3 hPa
Clouds: Overcast
Visibility: 7 miles , 11 km
Cloud details: Overcast 900 ft
2018/12/16 14:55 KDCY 161455Z AUTO 32004KT 7SM OVC009 03/01 A3016 RMK AO2 T00320008
 
KGEZ - Shelbyville, Indiana, USA
Distance from station: ENE 52mi, 83km
Updated: Sun, 16-Dec-2018 9:53am EST
Mist, Overcast
Mist, Overcast
 Wind from NW
Wind: NW 6 mph , 9 km/h
Temperature: 39°F , 4°C
Wind Chill: 35°F , 2°C
Dew Point: 37°F , 3°C
Humidity: 93%
Barometer: 30.11 inHg , 1019.6 hPa
Summary: Mist
Clouds: Overcast
Visibility: 4 miles , 6 km
Cloud details: Overcast 400 ft
2018/12/16 14:53 KGEZ 161453Z AUTO 32005KT 4SM BR OVC004 04/03 A3011 RMK AO2 SLP200 T00440033 52014
KRSV - Robinson Muni, Illinois, USA
Distance from station: WSW 55mi, 88km
Updated: Sun, 16-Dec-2018 9:55am EST
Clear
Clear
 Wind from W
Wind: W 7 mph , 11 km/h
Temperature: 36°F , 2°C
Wind Chill: 30°F , -1°C
Dew Point: 34°F , 1°C
Humidity: 93%
Barometer: 30.19 inHg , 1022.4 hPa
Clouds: Clear
Visibility: 7 miles , 11 km
2018/12/16 14:55 KRSV 161455Z AUTO 28006KT 7SM CLR 02/01 A3019 RMK AO2 T00150005
 
KTYQ - Indianapolis Exc, Indiana, USA
Distance from station: NNE 56mi, 90km
Updated: Sun, 16-Dec-2018 9:55am EST
Clear
Clear
 Wind from calm
Wind: Calm
Temperature: 36°F , 2°C
Dew Point: 34°F , 1°C
Humidity: 93%
Barometer: 30.11 inHg , 1019.6 hPa
Clouds: Clear
Visibility: 7 miles , 11 km
2018/12/16 14:55 KTYQ 161455Z AUTO 00000KT 7SM CLR 02/01 A3011 RMK AO2 T00170005
KMQJ - Indianapolis Reg, Indiana, USA
Distance from station: NE 57mi, 92km
Updated: Sun, 16-Dec-2018 9:56am EST
Clear
Clear
 Wind from NNW
Wind: NNW 3 mph , 6 km/h
Temperature: 37°F , 3°C
Dew Point: 37°F , 3°C
Humidity: 100%
Barometer: 30.10 inHg , 1019.3 hPa
Clouds: Clear
Visibility: 7 miles , 11 km
2018/12/16 14:56 KMQJ 161456Z AUTO 34003KT 7SM CLR 03/03 A3010 RMK AO1
 
KPRG - Paris, Illinois, USA
Distance from station: WNW 59mi, 94km
Updated: Sun, 16-Dec-2018 9:55am EST
Mist, Clear
Mist, Clear
 Wind from WNW
Wind: WNW 6 mph , 9 km/h
Temperature: 34°F , 1°C
Wind Chill: 29°F , -2°C
Dew Point: 32°F , 0°C
Humidity: 93%
Barometer: 30.17 inHg , 1021.7 hPa
Summary: Mist
Clouds: Clear
Visibility: 3 miles , 5 km
2018/12/16 14:55 KPRG 161455Z AUTO 30005KT 3SM BR CLR 01/00 A3017 RMK AO2 T00080000
KLWV - Lawrenceville, Illinois, USA
Distance from station: SW 61mi, 98km
Updated: Sun, 16-Dec-2018 9:53am EST
Clear
Clear
 Wind from WNW
Wind: WNW 9 mph , 15 km/h
Temperature: 39°F , 4°C
Wind Chill: 33°F , 1°C
Dew Point: 34°F , 1°C
Humidity: 81%
Barometer: 30.18 inHg , 1022 hPa
Clouds: Clear
Visibility: 7 miles , 11 km
2018/12/16 14:53 KLWV 161453Z AUTO 30008KT 7SM CLR 04/01 A3018 RMK AO2 SLP223 T00390006 51016
 
KAJG - Mount Carmel, Illinois, USA
Distance from station: SW 73mi, 117km
Updated: Sun, 16-Dec-2018 9:55am EST
Mist, Clear
Mist, Clear
 Wind from NW
Wind: NW 6 mph , 9 km/h
Temperature: 37°F , 3°C
Wind Chill: 32°F , 0°C
Dew Point: 34°F , 1°C
Humidity: 87%
Barometer: 30.18 inHg , 1022 hPa
Summary: Mist
Clouds: Clear
Visibility: 5 miles , 8 km
2018/12/16 14:55 KAJG 161455Z AUTO 32005KT 5SM BR CLR 03/01 A3018 RMK AO2 T00280011
KHNB - Huntingburg, Indiana, USA
Distance from station: S 74mi, 119km
Updated: Sun, 16-Dec-2018 10:08am EST
Mist, Overcast
Mist, Overcast
 Wind from NNW
Wind: NNW 7 mph , 11 km/h
Temperature: 39°F , 4°C
Wind Chill: 34°F , 1°C
Dew Point: 37°F , 3°C
Humidity: 93%
Barometer: 30.17 inHg , 1021.7 hPa
Summary: Mist
Clouds: Overcast
Visibility: 4 miles , 6 km
Cloud details: Overcast 500 ft
2018/12/16 15:08 KHNB 161508Z AUTO 33006KT 4SM BR OVC005 04/03 A3017 RMK AO2
 
KLAF - Lafayette, Indiana, USA
Distance from station: N 78mi, 126km
Updated: Sun, 16-Dec-2018 9:54am EST
Clear
Clear
 Wind from W
Wind: W 6 mph , 9 km/h
Temperature: 34°F , 1°C
Wind Chill: 29°F , -2°C
Dew Point: 30°F , -1°C
Humidity: 87%
Barometer: 30.14 inHg , 1020.7 hPa
Clouds: Clear
Visibility: 8 miles , 13 km
2018/12/16 14:54 KLAF 161454Z 27005KT 8SM CLR 01/M01 A3014 RMK AO2 SLP211 T00111006 53012
KDNV - Danville, Illinois, USA
Distance from station: NW 79mi, 126km
Updated: Sun, 16-Dec-2018 9:55am EST
Mist, Clear
Mist, Clear
 Wind from calm
Wind: Calm
Temperature: 32°F , 0°C
Dew Point: 32°F , 0°C
Humidity: 100%
Barometer: 30.13 inHg , 1020.3 hPa
Summary: Mist
Clouds: Clear
Visibility: 3 miles , 5 km
2018/12/16 14:55 KDNV 161455Z AUTO 00000KT 3SM BR CLR 00/00 A3013 RMK AO2 T00020002
 
KAID - Anderson Municip, Indiana, USA
Distance from station: NE 81mi, 130km
Updated: Sun, 16-Dec-2018 9:35am EST
Mist, Mostly cloudy
Mist, Mostly cloudy
 Wind from calm
Wind: Calm
Temperature: 37°F , 3°C
Dew Point: 36°F , 2°C
Humidity: 93%
Barometer: 30.10 inHg , 1019.3 hPa
Summary: Mist
Clouds: Mostly cloudy
Visibility: 4 miles , 6 km
Cloud details: Mostly cloudy 300 ft
2018/12/16 14:35 KAID 161435Z AUTO 00000KT 4SM BR BKN003 03/02 A3010 RMK AO2 T00280023
KMTO - Mattoon/Charlest, Illinois, USA
Distance from station: W 85mi, 136km
Updated: Sun, 16-Dec-2018 9:53am EST
Mist, Clear
Mist, Clear
 Wind from WNW
Wind: WNW 7 mph , 11 km/h
Temperature: 36°F , 2°C
Wind Chill: 30°F , -1°C
Dew Point: 34°F , 1°C
Humidity: 93%
Barometer: 30.17 inHg , 1021.7 hPa
Summary: Mist
Clouds: Clear
Visibility: 5 miles , 8 km
2018/12/16 14:53 KMTO 161453Z AUTO 30006KT 5SM BR CLR 02/01 A3017 RMK AO2 SLP222 T00170006 53010
 
KOLY - Olney-Noble, Illinois, USA
Distance from station: WSW 89mi, 144km
Updated: Sun, 16-Dec-2018 9:55am EST
Clear
Clear
 Wind from calm
Wind: Calm
Temperature: 36°F , 2°C
Dew Point: 34°F , 1°C
Humidity: 93%
Barometer: 30.19 inHg , 1022.4 hPa
Clouds: Clear
Visibility: 7 miles , 11 km
2018/12/16 14:55 KOLY 161455Z AUTO 00000KT 7SM CLR 02/01 A3019 RMK AO2 T00220012
KOKK - Kokomo, Indiana, USA
Distance from station: NNE 92mi, 148km
Updated: Sun, 16-Dec-2018 9:56am EST
Clear
Clear
 Wind from WNW
Wind: WNW 9 mph , 15 km/h
Temperature: 37°F , 3°C
Wind Chill: 30°F , -1°C
Dew Point: 34°F , 1°C
Humidity: 87%
Barometer: 30.11 inHg , 1019.6 hPa
Clouds: Clear
Visibility: 10 miles , 16 km
2018/12/16 14:56 KOKK 161456Z AUTO 29008KT 10SM CLR 03/01 A3011 RMK AO2 SLP204 6//// T00330011 51008